Latest Coastal Weather Observations for Yamba

IDN60701

Issued at 6:32 pm EST Friday 26 August 2016 (issued every 10 minutes, with the page automatically refreshed every 10 minutes)

About coastal observations | Map of coastal stations | Coastal observations for NSW | Marine services | Other Formats
Station Details ID: 058012 Name: YAMBA PILOT STATION Lat: -29.43 Lon: 153.36 Height: 27.4 m
Data from the previous 72 hours. | See also: Recent months at Yamba
Date/Time
EST
Temp
°C
Wind Pressure Rain since
9am
mm
Weather Cloud Vis
km
Sea
Height
m
Swell
Dir  Spd
kts
Gust
kts
hPa Trend Height
m
Period
s
Dir
26/06:30pm 15.6 SE 15 20 1016.9 - 0.0 - - - - - - -
26/06:00pm 15.5 SE 13 17 1016.7 - 0.0 - - - - - - -
26/05:30pm 15.5 SE 12 16 1016.3 - 0.0 - - - - - - -
26/05:00pm 15.6 SE 13 17 1016.0 - 0.0 - - - - - - -
26/04:30pm 16.0 SE 12 15 1015.9 - 0.0 - - - - - - -
26/04:00pm 16.3 SE 11 14 1015.5 - 0.0 - - - - - - -
26/03:30pm 16.5 SE 12 16 1015.3 - 0.0 - - - - - - -
26/03:00pm 16.5 SE 12 15 1015.1 - 0.0 - - - - - - -
26/02:30pm 16.8 SE 12 16 1015.0 - 0.0 - - - - - - -
26/02:00pm 16.7 SE 12 16 1015.1 - 0.0 - - - - - - -
26/01:30pm 16.9 SE 12 15 1015.4 - 0.0 - - - - - - -
26/01:00pm 16.9 SE 12 15 1015.6 - 0.0 - - - - - - -
26/12:30pm 16.6 SE 12 15 1015.7 - 0.0 - - - - - - -
26/12:00pm 16.7 SE 10 15 1016.2 - 0.0 - - - - - - -
26/11:30am 17.2 SSE 5 7 1016.5 - 0.0 - - - - - - -
26/11:00am 16.5 SSW 6 10 1016.9 - 0.0 - - - - - - -
26/10:30am 16.1 SW 6 9 1017.2 - 0.0 - - - - - - -
26/10:00am 15.3 WSW 7 11 1017.5 - 0.0 - - - - - - -
26/09:30am 14.9 WSW 6 10 1017.6 - 0.0 - - - - - - -
26/09:00am 14.0 WSW 8 14 1017.8 - 0.0 - - - - - - -
26/08:30am 13.4 WSW 6 13 1017.8 - 0.0 - - - - - - -
26/08:00am 12.4 WSW 6 12 1017.6 - 0.0 - - - - - - -
26/07:30am 11.3 WSW 6 9 1017.3 - 0.0 - - - - - - -
26/07:00am 10.2 WSW 5 8 1017.3 - 0.0 - - - - - - -
26/06:30am 9.2 WSW 5 8 1016.8 - 0.0 - - - - - - -
26/06:00am 8.9 WSW 5 9 1016.4 - 0.0 - - - - - - -
26/05:30am 9.2 W 5 8 1016.1 - 0.0 - - - - - - -
26/05:00am 9.3 WSW 5 8 1015.8 - 0.0 - - - - - - -
26/04:30am 9.7 W 5 8 1015.7 - 0.0 - - - - - - -
26/04:00am 10.3 WSW 4 6 1015.3 - 0.0 - - - - - - -
26/03:30am 10.6 WSW 5 8 1014.9 - 0.0 - - - - - - -
26/03:00am 10.2 W 5 7 1014.8 - 0.0 - - - - - - -
26/02:30am 10.4 W 7 9 1014.7 - 0.0 - - - - - - -
26/02:00am 10.7 W 6 8 1014.7 - 0.0 - - - - - - -
26/01:30am 11.0 W 6 8 1014.7 - 0.0 - - - - - - -
26/01:00am 11.1 W 5 7 1014.6 - 0.0 - - - - - - -
26/12:30am 11.6 W 6 8 1014.5 - 0.0 - - - - - - -
26/12:00am 11.9 W 5 7 1014.5 - 0.0 - - - - - - -
 
Date/Time
EST
Temp
°C
Wind Pressure Rain since
9am
mm
Weather Cloud Vis
km
Sea
Height
m
Swell
Dir  Spd
kts
Gust
kts
hPa Trend Height
m
Period
s
Dir
25/11:30pm 12.6 WSW 5 8 1014.6 - 0.0 - - - - - - -
25/11:00pm 13.0 WSW 5 8 1014.7 - 0.0 - - - - - - -
25/10:30pm 13.2 WSW 5 9 1014.7 - 0.0 - - - - - - -
25/10:00pm 13.5 SW 5 9 1014.6 - 0.0 - - - - - - -
25/09:30pm 13.2 WSW 5 8 1014.6 - 0.0 - - - - - - -
25/09:00pm 13.5 W 5 7 1014.2 - 0.0 - - - - - - -
25/08:30pm 14.1 WSW 4 8 1013.9 - 0.0 - - - - - - -
25/08:00pm 15.0 SW 5 11 1013.7 - 0.0 - - - - - - -
25/07:30pm 15.4 SW 5 8 1013.6 - 0.0 - - - - - - -
25/07:00pm 15.7 SSW 6 10 1013.0 - 0.0 - - - - - - -
25/06:30pm 16.8 S 5 8 1012.3 - 0.0 - - - - - - -
25/06:00pm 17.4 SSE 7 11 1011.9 - 0.0 - - - - - - -
25/05:30pm 17.9 SSE 8 11 1011.2 - 0.0 - - - - - - -
25/05:00pm 17.9 WSW 5 8 1010.6 - 0.0 - - - - - - -
25/04:30pm 18.0 WNW 6 9 1010.1 - 0.0 - - - - - - -
25/04:00pm 20.0 W 7 10 1009.7 - 0.0 - - - - - - -
25/03:30pm 20.5 WNW 6 11 1009.3 - 0.0 - - - - - - -
25/03:00pm 20.1 W 7 13 1009.2 - 0.0 - - - - - - -
25/02:30pm 19.9 W 8 16 1008.9 - 0.0 - - - - - - -
25/02:00pm 19.5 WSW 7 12 1008.8 - 0.0 - - - - - - -
25/01:30pm 19.6 W 8 12 1008.8 - 0.0 - - - - - - -
25/01:00pm 19.0 W 8 14 1008.9 - 0.0 - - - - - - -
25/12:30pm 19.3 WSW 6 12 1009.2 - 0.0 - - - - - - -
25/12:00pm 18.6 W 9 17 1009.5 - 0.0 - - - - - - -
25/11:30am 18.0 W 8 13 1009.6 - 0.0 - - - - - - -
25/11:00am 17.6 W 11 17 1009.7 - 0.0 - - - - - - -
25/10:30am 17.8 WNW 10 16 1009.9 - 0.0 - - - - - - -
25/10:00am 17.1 W 8 14 1010.0 - 0.0 - - - - - - -
25/09:30am 16.6 W 9 14 1009.8 - 0.0 - - - - - - -
25/09:00am 16.0 W 9 14 1009.8 - 18.4 - - - - - - -
25/08:30am 15.5 WNW 8 13 1009.6 - 18.4 - - - - - - -
25/08:00am 14.8 WNW 6 10 1009.3 - 18.4 - - - - - - -
25/07:30am 13.8 NNW 5 8 1009.1 - 18.4 - - - - - - -
25/07:00am 12.4 NW 4 7 1008.3 - 18.4 - - - - - - -
25/06:30am 11.9 NNW 5 6 1008.1 - 18.4 - - - - - - -
25/06:00am 12.6 NNW 5 6 1007.4 - 18.4 - - - - - - -
25/05:30am 13.0 WNW 3 4 1007.2 - 18.4 - - - - - - -
25/05:00am 13.2 W 6 7 1006.2 - 18.4 - - - - - - -
25/04:30am 13.8 WSW 5 7 1006.0 - 18.4 - - - - - - -
25/04:00am 13.6 WNW 9 14 1006.3 - 18.4 - - - - - - -
25/03:30am 13.7 W 7 11 1004.9 - 18.4 - - - - - - -
25/03:00am 13.9 WSW 5 10 1004.2 - 18.2 - - - - - - -
25/02:30am 14.1 WSW 6 9 1003.9 - 18.2 - - - - - - -
25/02:00am 14.5 WNW 8 13 1004.8 - 18.2 - - - - - - -
25/01:30am 14.5 WNW 7 13 1005.3 - 18.2 - - - - - - -
25/01:00am 14.5 NW 7 10 1005.5 - 18.2 - - - - - - -
25/12:30am 14.4 WNW 6 9 1006.0 - 18.2 - - - - - - -
25/12:00am 14.4 NNW 5 7 1005.3 - 18.2 - - - - - - -
 
Date/Time
EST
Temp
°C
Wind Pressure Rain since
9am
mm
Weather Cloud Vis
km
Sea
Height
m
Swell
Dir  Spd
kts
Gust
kts
hPa Trend Height
m
Period
s
Dir
24/11:30pm 14.6 NW 5 7 1004.8 - 18.2 - - - - - - -
24/11:00pm 14.6 NNW 5 7 1005.0 - 18.2 - - - - - - -
24/10:30pm 14.7 NW 7 9 1005.7 - 18.2 - - - - - - -
24/10:00pm 14.6 NW 5 7 1005.8 - 18.2 - - - - - - -
24/09:30pm 14.7 NNW 7 9 1006.2 - 18.2 - - - - - - -
24/09:00pm 14.6 NNW 3 5 1005.8 - 18.2 - - - - - - -
24/08:30pm 15.0 NW 4 6 1006.1 - 18.2 - - - - - - -
24/08:00pm 15.2 W 6 7 1007.3 - 18.2 - - - - - - -
24/07:30pm 15.0 WSW 5 6 1006.6 - 18.2 - - - - - - -
24/07:17pm 15.0 WSW 5 9 1006.0 - 18.2 - - - - - - -
24/07:00pm 15.1 WNW 7 10 1008.0 - 18.2 - - - - - - -
24/06:30pm 15.1 WNW 5 8 1006.3 - 18.2 - - - - - - -
24/06:00pm 15.2 W 6 9 1006.4 - 18.2 Rain - - - - - -
24/05:30pm 15.4 W 6 8 1006.9 - 18.0 - - - - - - -
24/05:00pm 15.4 WSW 3 6 1006.0 - 18.0 - - - - - - -
24/04:30pm 15.4 W 7 11 1006.7 - 18.0 - - - - - - -
24/04:00pm 15.7 NW 4 5 1006.1 - 17.8 - - - - - - -
24/03:30pm 15.7 SW 5 8 1006.7 - 17.8 - - - - - - -
24/03:00pm 15.4 E 6 9 1004.8 - 17.6 Recent precip. - - - - - -
24/02:49pm 15.4 ESE 4 6 1005.4 - 17.6 - - - - - - -
24/02:30pm 15.3 WSW 5 9 1007.4 - 17.0 - - - - - - -
24/02:00pm 15.1 SW 4 7 1007.7 - 15.2 - - - - - - -
24/01:30pm 15.3 WSW 4 9 1007.7 - 13.4 - - - - - - -
24/01:00pm 15.2 SW 5 9 1007.7 - 11.4 - - - - - - -
24/12:30pm 15.2 SSW 7 12 1007.7 - 9.0 - - - - - - -
24/12:00pm 15.1 SSW 9 13 1007.8 - 8.0 Rain - - - - - -
24/11:30am 15.2 S 8 11 1008.3 - 5.8 - - - - - - -
24/11:00am 15.3 SSW 9 13 1008.9 - 4.4 - - - - - - -
24/10:30am 17.0 SE 17 21 1009.0 - 3.4 - - - - - - -
24/10:00am 16.7 SSE 10 15 1010.4 - 2.4 - - - - - - -
24/09:30am 16.8 SE 16 20 1010.5 - 0.8 - - - - - - -
24/09:00am 16.8 SE 17 22 1010.5 - 45.4 Rain - - - - - -
24/08:30am 16.6 SE 16 21 1011.1 - 44.2 - - - - - - -
24/08:00am 16.8 SE 23 29 1010.2 - 42.2 - - - - - - -
24/07:30am 16.8 SE 24 29 1009.6 - 41.0 - - - - - - -
24/07:00am 16.7 SE 22 27 1009.7 - 39.6 - - - - - - -
24/06:30am 16.5 SE 21 27 1009.9 - 38.0 - - - - - - -
24/06:15am 16.8 SE 18 23 1010.6 - 36.2 - - - - - - -
24/06:00am 16.3 SSE 13 21 1011.1 - 33.8 Rain - - - - - -
24/05:30am 16.4 SE 20 25 1010.2 - 31.6 - - - - - - -
24/05:00am 16.7 SE 18 23 1010.7 - 28.4 - - - - - - -
24/04:30am 16.8 SE 20 29 1010.3 - 24.0 - - - - - - -
24/04:12am 16.8 SE 18 28 1010.4 - 22.4 - - - - - - -
24/04:00am 16.9 SE 21 28 1009.7 - 21.0 - - - - - - -
24/03:30am 16.8 SE 19 23 1010.0 - 18.2 - - - - - - -
24/03:07am 16.7 SE 18 28 1010.1 - 16.4 - - - - - - -
24/03:00am 16.8 SE 19 24 1010.5 - 15.6 Rain - - - - - -
24/02:30am 16.8 ESE 16 23 1010.8 - 12.6 - - - - - - -
24/02:00am 16.7 SE 18 24 1011.0 - 9.8 - - - - - - -
24/01:30am 17.0 SE 15 21 1011.7 - 7.8 - - - - - - -
24/01:00am 17.1 SE 14 20 1011.9 - 6.6 - - - - - - -
24/12:30am 17.8 SE 17 22 1012.4 - 5.0 - - - - - - -
24/12:00am 18.0 SE 17 23 1012.2 - 4.0 Rain - - - - - -
 
Date/Time
EST
Temp
°C
Wind Pressure Rain since
9am
mm
Weather Cloud Vis
km
Sea
Height
m
Swell
Dir  Spd
kts
Gust
kts
hPa Trend Height
m
Period
s
Dir
23/11:30pm 18.0 SE 16 22 1012.5 - 3.6 - - - - - - -
23/11:00pm 18.2 SSE 11 16 1012.9 - 2.6 - - - - - - -
23/10:30pm 18.2 SSE 12 18 1013.3 - 0.8 - - - - - - -
23/10:00pm 19.0 SSE 11 15 1012.8 - 0.6 - - - - - - -
23/09:30pm 19.2 SSE 11 14 1013.5 - 0.2 - - - - - - -
23/09:00pm 18.7 SSE 8 11 1013.8 - 0.2 Recent precip. - - - - - -
23/08:30pm 18.5 SSE 6 10 1013.9 - 0.2 - - - - - - -
23/08:00pm 18.7 SSE 9 12 1013.9 - 0.0 - - - - - - -
23/07:30pm 19.0 SSE 8 13 1013.6 - 0.0 - - - - - - -
23/07:00pm 19.8 N 4 11 1013.5 - 0.0 - - - - - - -

Other Formats:

Comma delimited format used in spreadsheet applications
http://www.bom.gov.au/fwo/IDN60701/IDN60701.94589.axf

JavaScript Object Notation format (JSON) in row-major order
http://www.bom.gov.au/fwo/IDN60701/IDN60701.94589.json